Time;durP1;ratioP1;P1;durP2;ratioP2;P2;SDS_P1;SDS_P2;PMS_P1;PMS_P2;Temp;Humidity;BMP_temperature;BMP_pressure;BME280_temperature;BME280_humidity;BME280_pressure;Samples;Min_cycle;Max_cycle;Signal;HPM_P1;HPM_P2
2021/12/16 00:01:49;;;;;;;25.93;16.23;;;4.50;76.30;;;;;;4987518;28;20402;-80
2021/12/16 00:07:22;;;;;;;22.23;14.97;;;4.50;76.50;;;;;;4989525;28;20037;-80
2021/12/16 00:34:01;;;;;;;23.45;16.13;;;4.40;76.50;;;;;;4988421;28;20475;-80
2021/12/16 00:36:36;;;;;;;23.47;15.33;;;4.40;76.50;;;;;;4968974;28;20035;-80
2021/12/16 00:39:09;;;;;;;25.97;16.37;;;4.40;76.50;;;;;;4982386;28;20062;-80
2021/12/16 00:41:36;;;;;;;25.20;15.33;;;4.40;76.40;;;;;;4976353;28;20050;-80
2021/12/16 00:44:50;;;;;;;25.67;15.80;;;4.40;76.40;;;;;;4966801;28;20555;-80
2021/12/16 00:49:47;;;;;;;25.13;15.52;;;4.50;76.40;;;;;;4956426;28;20398;-80
2021/12/16 00:55:24;;;;;;;25.67;14.07;;;4.50;76.40;;;;;;4986033;28;20036;-80
2021/12/16 00:57:51;;;;;;;24.43;14.60;;;4.40;76.40;;;;;;4966281;28;20055;-80
2021/12/16 01:00:17;;;;;;;25.20;15.57;;;4.40;76.50;;;;;;4981428;28;20437;-80
2021/12/16 01:38:13;;;;;;;25.00;15.37;;;4.40;76.20;;;;;;4992672;28;20056;-80
2021/12/16 01:51:02;;;;;;;25.05;15.77;;;4.40;76.40;;;;;;4996976;28;20186;-80
2021/12/16 01:56:16;;;;;;;26.58;16.10;;;4.30;76.30;;;;;;4985230;28;20045;-79
2021/12/16 01:58:42;;;;;;;24.63;15.23;;;4.30;76.30;;;;;;4973105;28;20042;-80
2021/12/16 02:03:55;;;;;;;22.93;15.80;;;4.20;76.70;;;;;;4980007;28;20058;-80
2021/12/16 02:09:19;;;;;;;33.07;16.57;;;4.20;76.60;;;;;;4981334;28;20073;-80
2021/12/16 02:28:23;;;;;;;24.33;17.27;;;4.20;76.60;;;;;;4977284;28;20494;-80
2021/12/16 02:36:30;;;;;;;24.63;16.00;;;4.30;76.60;;;;;;4952408;28;20035;-80
2021/12/16 02:39:05;;;;;;;27.90;16.58;;;4.20;76.60;;;;;;4976557;28;20031;-80
2021/12/16 02:41:31;;;;;;;26.83;15.80;;;4.20;76.60;;;;;;4966636;28;20030;-80
2021/12/16 02:49:18;;;;;;;22.37;15.37;;;4.20;76.70;;;;;;4982332;28;20042;-80
2021/12/16 02:51:44;;;;;;;21.63;15.30;;;4.20;76.70;;;;;;4965524;28;20031;-80
2021/12/16 02:54:10;;;;;;;24.77;15.57;;;4.10;76.40;;;;;;4982621;28;20034;-80
2021/12/16 02:56:36;;;;;;;23.93;16.90;;;4.00;76.50;;;;;;4991154;28;20096;-80
2021/12/16 02:59:04;;;;;;;23.70;14.83;;;4.00;77.00;;;;;;4971512;28;20561;-79
2021/12/16 03:01:39;;;;;;;22.57;14.57;;;4.00;77.10;;;;;;4981139;28;20401;-80
2021/12/16 03:04:08;;;;;;;21.13;15.17;;;4.10;77.00;;;;;;4994036;28;20501;-80
2021/12/16 03:06:34;;;;;;;19.93;14.40;;;4.10;77.10;;;;;;4958194;28;20027;-80
2021/12/16 03:09:05;;;;;;;21.60;14.70;;;4.00;76.80;;;;;;4969282;28;20031;-80
2021/12/16 03:11:44;;;;;;;22.93;14.43;;;4.10;76.90;;;;;;4985705;28;20049;-80
2021/12/16 03:17:11;;;;;;;18.77;13.47;;;4.00;76.90;;;;;;4973236;28;20085;-80
2021/12/16 03:19:43;;;;;;;20.70;13.77;;;4.10;77.00;;;;;;4986947;28;20065;-80
2021/12/16 03:22:19;;;;;;;23.43;14.00;;;4.10;77.00;;;;;;4986800;28;20077;-80
2021/12/16 03:37:57;;;;;;;19.92;15.02;;;4.00;77.10;;;;;;4974211;28;20035;-80
2021/12/16 03:40:25;;;;;;;21.77;14.13;;;4.00;77.10;;;;;;4986024;28;20065;-80
2021/12/16 03:43:01;;;;;;;28.93;14.37;;;4.00;77.00;;;;;;4961378;28;20038;-79
2021/12/16 03:48:30;;;;;;;21.27;13.53;;;4.10;77.00;;;;;;4978607;28;20050;-80
2021/12/16 03:50:57;;;;;;;24.67;14.70;;;4.00;76.90;;;;;;4958695;28;20034;-80
2021/12/16 03:53:23;;;;;;;25.57;14.17;;;4.10;76.90;;;;;;4958142;28;21365;-80
2021/12/16 03:55:51;;;;;;;22.33;14.03;;;4.10;76.90;;;;;;4974572;28;20034;-79
2021/12/16 03:58:17;;;;;;;19.80;14.43;;;4.10;77.10;;;;;;4963912;28;20054;-80
2021/12/16 04:00:49;;;;;;;19.13;13.63;;;4.10;77.20;;;;;;4992886;28;20104;-80
2021/12/16 04:03:15;;;;;;;19.08;13.50;;;4.20;77.00;;;;;;4987636;28;20093;-80
2021/12/16 04:05:43;;;;;;;21.13;13.50;;;4.20;76.90;;;;;;4972578;28;20094;-80
2021/12/16 04:08:09;;;;;;;19.17;13.87;;;4.20;76.70;;;;;;4965254;28;20049;-80
2021/12/16 04:11:06;;;;;;;20.07;13.77;;;4.20;76.70;;;;;;4969120;28;20030;-80
2021/12/16 04:13:41;;;;;;;19.20;13.17;;;4.20;76.80;;;;;;4970907;28;20042;-80
2021/12/16 04:16:07;;;;;;;21.07;13.63;;;4.30;76.80;;;;;;4990969;28;20054;-80
2021/12/16 04:18:33;;;;;;;19.47;12.77;;;4.30;76.50;;;;;;4986553;28;20027;-80
2021/12/16 04:21:00;;;;;;;21.10;13.77;;;4.20;76.50;;;;;;4967815;28;20109;-80
2021/12/16 04:23:26;;;;;;;19.77;13.33;;;4.30;76.60;;;;;;4988469;28;20433;-79
2021/12/16 04:25:52;;;;;;;18.47;13.43;;;4.30;76.60;;;;;;4982640;28;20105;-79
2021/12/16 04:28:23;;;;;;;21.73;13.30;;;4.30;76.50;;;;;;4970860;28;20026;-79
2021/12/16 04:30:49;;;;;;;19.87;13.17;;;4.30;76.30;;;;;;4967947;28;20142;-79
2021/12/16 04:33:16;;;;;;;20.23;13.03;;;4.40;76.30;;;;;;4963095;28;20386;-79
2021/12/16 04:35:42;;;;;;;22.63;14.33;;;4.40;76.20;;;;;;4970268;28;20033;-79
2021/12/16 04:38:10;;;;;;;24.07;16.37;;;4.40;76.20;;;;;;4984493;28;20063;-79
2021/12/16 04:40:38;;;;;;;21.07;13.70;;;4.40;76.10;;;;;;4968241;28;20038;-78
2021/12/16 04:43:06;;;;;;;23.73;15.27;;;4.30;76.10;;;;;;4970480;28;20481;-79
2021/12/16 04:45:33;;;;;;;25.27;15.03;;;4.40;76.20;;;;;;4966973;28;20023;-79
2021/12/16 04:47:59;;;;;;;22.50;14.87;;;4.30;76.20;;;;;;4971644;28;20029;-79
2021/12/16 04:50:26;;;;;;;25.50;15.50;;;4.40;76.30;;;;;;4968288;28;20076;-79
2021/12/16 04:52:52;;;;;;;23.97;14.57;;;4.40;76.20;;;;;;4991954;28;20031;-79
2021/12/16 04:55:20;;;;;;;26.20;15.30;;;4.40;76.40;;;;;;4971942;28;20026;-79
2021/12/16 04:57:47;;;;;;;26.63;14.87;;;4.40;76.20;;;;;;4987677;28;20081;-79
2021/12/16 05:00:21;;;;;;;25.20;15.77;;;4.40;76.20;;;;;;4970900;28;20386;-79
2021/12/16 05:02:47;;;;;;;26.60;16.53;;;4.40;76.30;;;;;;4964952;28;20035;-79
2021/12/16 05:05:14;;;;;;;23.03;15.33;;;4.40;76.30;;;;;;4966898;28;20026;-79
2021/12/16 05:07:42;;;;;;;25.80;15.90;;;4.40;76.20;;;;;;4964702;28;20129;-78
2021/12/16 05:10:11;;;;;;;27.00;16.03;;;4.50;76.20;;;;;;4959470;28;20114;-78
2021/12/16 05:12:41;;;;;;;30.83;17.07;;;4.50;76.40;;;;;;4980976;28;20142;-79
2021/12/16 05:15:12;;;;;;;31.60;17.93;;;4.50;76.10;;;;;;4978166;28;20026;-79
2021/12/16 05:17:43;;;;;;;27.40;17.33;;;4.50;76.20;;;;;;4984611;28;20392;-79
2021/12/16 05:20:13;;;;;;;24.03;15.30;;;4.50;76.20;;;;;;4964672;28;20054;-78
2021/12/16 05:25:43;;;;;;;24.93;14.87;;;4.50;76.20;;;;;;4979490;28;20077;-79
2021/12/16 05:28:08;;;;;;;26.03;14.83;;;4.50;76.40;;;;;;4982905;28;20018;-78
2021/12/16 05:30:35;;;;;;;27.53;16.60;;;4.50;76.30;;;;;;4981652;28;20030;-79
2021/12/16 05:33:00;;;;;;;29.00;16.57;;;4.60;76.30;;;;;;4980273;28;20023;-79
2021/12/16 05:35:27;;;;;;;30.97;16.77;;;4.60;76.10;;;;;;4959289;28;20042;-79
2021/12/16 05:37:53;;;;;;;27.30;17.53;;;4.60;76.00;;;;;;4961154;28;20102;-79
2021/12/16 05:40:25;;;;;;;28.57;16.50;;;4.60;76.10;;;;;;4985591;28;20027;-79
2021/12/16 05:42:57;;;;;;;33.77;18.23;;;4.50;76.10;;;;;;4984172;28;20386;-79
2021/12/16 05:45:23;;;;;;;27.50;17.52;;;4.50;76.10;;;;;;4979617;28;20034;-78
2021/12/16 05:47:56;;;;;;;27.33;16.97;;;4.50;76.10;;;;;;4956504;28;20034;-78
2021/12/16 05:50:22;;;;;;;34.50;19.95;;;4.50;76.20;;;;;;4986758;28;20029;-79
2021/12/16 05:52:48;;;;;;;29.90;17.43;;;4.50;76.40;;;;;;4975052;28;20169;-79
2021/12/16 05:55:16;;;;;;;24.33;15.63;;;4.60;76.30;;;;;;4961258;28;20130;-79
2021/12/16 05:57:43;;;;;;;26.90;15.33;;;4.60;76.30;;;;;;4958961;28;20053;-79
2021/12/16 06:00:15;;;;;;;23.53;14.97;;;4.60;76.30;;;;;;4976990;28;20030;-79
2021/12/16 06:02:42;;;;;;;27.43;15.50;;;4.60;76.20;;;;;;4984583;28;20520;-79
2021/12/16 06:05:09;;;;;;;23.53;15.20;;;4.60;76.10;;;;;;4964838;28;20481;-78
2021/12/16 06:07:34;;;;;;;24.03;14.97;;;4.60;76.00;;;;;;4978321;28;20386;-79
2021/12/16 06:10:01;;;;;;;27.73;17.23;;;4.60;76.20;;;;;;4959156;28;20031;-79
2021/12/16 06:12:28;;;;;;;30.40;16.27;;;4.60;76.10;;;;;;4962133;28;20495;-78
2021/12/16 06:15:18;;;;;;;24.47;15.27;;;4.60;76.10;;;;;;4982890;28;20054;-79
2021/12/16 06:28:53;;;;;;;26.13;14.10;;;4.60;75.90;;;;;;4981985;28;20502;-79
2021/12/16 06:31:19;;;;;;;22.47;14.27;;;4.60;75.80;;;;;;4956266;28;20126;-80
2021/12/16 06:33:45;;;;;;;21.43;13.40;;;4.60;75.80;;;;;;4965939;28;20031;-78
2021/12/16 06:36:11;;;;;;;23.30;14.93;;;4.60;75.90;;;;;;4963510;28;20389;-79
2021/12/16 06:38:37;;;;;;;22.17;14.83;;;4.60;75.70;;;;;;4986827;28;20034;-78
2021/12/16 06:41:02;;;;;;;26.57;13.73;;;4.70;75.70;;;;;;4966860;28;20031;-79
2021/12/16 06:43:29;;;;;;;18.23;13.00;;;4.70;75.60;;;;;;4974190;28;20038;-79
2021/12/16 06:45:56;;;;;;;18.77;12.87;;;4.70;75.40;;;;;;4988912;28;20022;-78
2021/12/16 06:48:28;;;;;;;18.73;12.30;;;4.60;75.40;;;;;;4984192;28;20074;-79
2021/12/16 06:51:20;;;;;;;19.27;12.70;;;4.70;75.40;;;;;;4979315;28;20030;-79
2021/12/16 06:54:03;;;;;;;19.50;13.27;;;4.70;75.40;;;;;;4979158;28;20057;-79
2021/12/16 06:56:36;;;;;;;20.37;13.30;;;4.70;75.30;;;;;;4963615;28;20060;-79
2021/12/16 06:59:24;;;;;;;19.10;12.37;;;4.70;75.10;;;;;;4959315;28;20027;-79
2021/12/16 07:02:15;;;;;;;16.23;11.90;;;4.60;75.10;;;;;;4981349;28;20039;-79
2021/12/16 07:04:43;;;;;;;18.97;13.13;;;4.60;75.10;;;;;;4978027;28;20031;-79
2021/12/16 07:07:11;;;;;;;20.00;12.17;;;4.50;75.30;;;;;;4960967;28;20030;-79
2021/12/16 07:09:38;;;;;;;19.63;11.97;;;4.50;75.50;;;;;;4973816;28;20030;-79
2021/12/16 07:12:07;;;;;;;15.53;11.33;;;4.60;75.50;;;;;;4963335;28;20467;-79
2021/12/16 07:14:39;;;;;;;14.43;11.00;;;4.60;75.40;;;;;;4980377;28;20066;-79
2021/12/16 07:17:11;;;;;;;15.55;11.63;;;4.60;75.30;;;;;;4984074;28;20487;-79
2021/12/16 07:19:37;;;;;;;15.60;11.17;;;4.70;75.30;;;;;;4957091;28;20034;-79
2021/12/16 07:22:04;;;;;;;18.10;12.33;;;4.70;75.10;;;;;;4975303;28;20038;-79
2021/12/16 07:24:30;;;;;;;18.27;12.50;;;4.70;74.80;;;;;;4966573;28;20121;-79
2021/12/16 07:26:56;;;;;;;17.17;12.00;;;4.70;74.80;;;;;;4980466;28;20101;-79
2021/12/16 07:29:23;;;;;;;16.13;11.67;;;4.70;74.90;;;;;;4980733;28;20042;-79
2021/12/16 07:31:48;;;;;;;15.83;12.17;;;4.70;74.90;;;;;;4979232;28;20054;-78
2021/12/16 07:34:15;;;;;;;16.37;11.30;;;4.70;74.80;;;;;;4979684;28;20069;-78
2021/12/16 07:36:44;;;;;;;16.20;10.73;;;4.70;74.90;;;;;;4960012;28;20363;-78
2021/12/16 07:39:14;;;;;;;16.90;12.00;;;4.70;74.80;;;;;;4984850;28;20031;-78
2021/12/16 07:41:42;;;;;;;16.93;11.90;;;4.70;74.80;;;;;;4963157;28;20050;-78
2021/12/16 07:44:11;;;;;;;18.13;11.80;;;4.80;74.80;;;;;;4970754;28;20077;-78
2021/12/16 07:46:39;;;;;;;17.37;11.23;;;4.80;74.70;;;;;;4993812;28;20470;-79
2021/12/16 07:49:06;;;;;;;16.00;11.20;;;4.80;74.80;;;;;;4981867;28;20022;-79
2021/12/16 07:51:33;;;;;;;13.93;10.27;;;4.80;74.60;;;;;;4967493;28;20540;-79
2021/12/16 07:54:00;;;;;;;16.53;11.93;;;4.80;74.60;;;;;;4961332;28;20034;-79
2021/12/16 07:56:26;;;;;;;14.40;10.60;;;4.90;74.60;;;;;;4959287;28;20476;-79
2021/12/16 07:58:52;;;;;;;14.47;10.83;;;4.90;74.50;;;;;;4967346;28;20031;-79
2021/12/16 08:01:19;;;;;;;15.70;11.53;;;4.90;74.30;;;;;;4966361;28;20030;-78
2021/12/16 08:03:45;;;;;;;14.77;10.30;;;4.90;74.40;;;;;;4962155;28;20383;-79
2021/12/16 08:06:18;;;;;;;15.23;10.10;;;4.90;74.10;;;;;;4969943;28;20022;-79
2021/12/16 08:08:44;;;;;;;16.37;10.80;;;4.90;74.20;;;;;;4977555;28;20130;-79
2021/12/16 08:11:09;;;;;;;15.70;11.50;;;4.90;74.10;;;;;;4979503;28;20102;-78
2021/12/16 08:13:35;;;;;;;18.00;11.57;;;5.00;74.00;;;;;;4984526;28;20018;-79
2021/12/16 08:16:02;;;;;;;20.53;12.67;;;5.00;74.00;;;;;;4974909;28;20022;-79
2021/12/16 08:18:29;;;;;;;20.77;13.80;;;4.90;73.70;;;;;;4982349;28;20031;-79
2021/12/16 08:20:54;;;;;;;23.40;14.70;;;4.90;73.90;;;;;;4964846;28;20031;-78
2021/12/16 08:23:21;;;;;;;22.00;14.03;;;4.90;74.10;;;;;;4985434;28;20034;-78
2021/12/16 08:25:47;;;;;;;23.60;14.70;;;4.90;74.00;;;;;;4964424;28;20478;-79
2021/12/16 08:28:13;;;;;;;20.53;13.47;;;4.90;74.30;;;;;;4980330;28;20023;-78
2021/12/16 08:30:43;;;;;;;21.87;14.67;;;4.90;74.40;;;;;;4984460;28;20034;-79
2021/12/16 08:33:11;;;;;;;25.57;15.07;;;4.90;74.50;;;;;;4979637;28;20026;-78
2021/12/16 08:35:40;;;;;;;21.63;15.03;;;4.90;74.30;;;;;;4980710;28;20030;-78
2021/12/16 08:38:08;;;;;;;25.40;15.83;;;4.90;74.40;;;;;;4981477;28;20022;-79
2021/12/16 08:40:34;;;;;;;24.80;14.67;;;4.90;74.40;;;;;;4962049;28;20038;-79
2021/12/16 08:43:00;;;;;;;29.00;15.63;;;4.90;74.50;;;;;;4982430;28;20031;-79
2021/12/16 08:45:30;;;;;;;22.43;15.13;;;4.90;74.50;;;;;;4984814;28;20038;-78
2021/12/16 08:47:57;;;;;;;20.97;14.30;;;4.90;74.50;;;;;;4967120;28;20031;-78
2021/12/16 08:50:26;;;;;;;24.37;16.27;;;5.00;74.50;;;;;;4958771;28;20383;-78
2021/12/16 08:52:52;;;;;;;20.90;14.50;;;4.90;74.50;;;;;;4979925;28;20034;-78
2021/12/16 08:55:18;;;;;;;25.27;15.47;;;4.90;74.60;;;;;;4960038;28;20034;-79
2021/12/16 08:57:43;;;;;;;23.57;15.77;;;4.90;74.60;;;;;;4984266;28;20441;-79
2021/12/16 09:00:21;;;;;;;23.90;15.97;;;4.90;75.40;;;;;;4957885;28;20034;-79
2021/12/16 09:02:46;;;;;;;23.30;15.57;;;4.90;74.70;;;;;;4964561;28;20553;-79
2021/12/16 09:05:12;;;;;;;25.17;14.97;;;4.90;74.70;;;;;;4968228;28;20022;-79
2021/12/16 09:07:38;;;;;;;27.50;15.63;;;4.90;74.90;;;;;;4982021;28;20027;-78
2021/12/16 09:10:10;;;;;;;21.10;14.57;;;4.90;74.90;;;;;;4972565;28;20030;-78
2021/12/16 09:12:49;;;;;;;23.00;14.60;;;4.90;75.10;;;;;;4978991;28;20034;-78
2021/12/16 09:15:15;;;;;;;28.73;14.87;;;4.80;74.90;;;;;;4981845;28;20565;-79
2021/12/16 09:17:41;;;;;;;28.63;15.57;;;4.90;75.00;;;;;;4976800;28;20054;-78
2021/12/16 09:20:08;;;;;;;29.30;15.90;;;4.90;75.10;;;;;;4970478;28;20031;-79
2021/12/16 09:22:34;;;;;;;22.63;13.80;;;4.80;75.10;;;;;;4979451;28;20033;-78
2021/12/16 09:25:00;;;;;;;25.53;15.77;;;4.90;75.20;;;;;;4970073;28;20545;-78
2021/12/16 09:27:27;;;;;;;29.40;15.90;;;4.90;75.20;;;;;;4984611;28;20104;-79
2021/12/16 09:29:54;;;;;;;31.07;17.60;;;4.90;75.60;;;;;;4989583;28;20019;-78
2021/12/16 09:32:23;;;;;;;31.10;17.03;;;4.90;75.20;;;;;;4957620;28;20041;-79
2021/12/16 09:34:49;;;;;;;24.97;15.73;;;4.90;75.20;;;;;;4963745;28;20398;-79
2021/12/16 09:37:17;;;;;;;25.47;15.47;;;4.90;75.20;;;;;;4981003;28;20029;-79
2021/12/16 09:39:43;;;;;;;23.63;14.80;;;4.90;75.20;;;;;;4964400;28;20390;-79
2021/12/16 09:42:09;;;;;;;25.80;15.77;;;4.90;75.40;;;;;;4960144;28;20023;-79
2021/12/16 09:44:36;;;;;;;43.50;24.77;;;5.00;75.40;;;;;;4977484;28;20027;-79
2021/12/16 09:47:05;;;;;;;34.60;21.23;;;4.90;75.20;;;;;;4962494;28;20025;-79
2021/12/16 09:49:31;;;;;;;32.03;19.10;;;4.90;75.30;;;;;;4983740;28;20371;-79
2021/12/16 09:51:59;;;;;;;31.67;18.53;;;5.00;75.40;;;;;;4982259;28;20026;-79
2021/12/16 09:54:29;;;;;;;27.33;17.83;;;5.00;75.40;;;;;;4956135;28;20736;-79
2021/12/16 09:56:56;;;;;;;28.40;17.50;;;5.00;75.40;;;;;;4960657;28;20046;-79
2021/12/16 09:59:23;;;;;;;26.90;15.90;;;5.10;75.50;;;;;;4979302;28;20026;-78
2021/12/16 10:01:52;;;;;;;29.40;18.27;;;5.10;75.50;;;;;;4956802;28;20386;-78
2021/12/16 10:04:21;;;;;;;28.67;17.70;;;5.10;75.40;;;;;;4962982;28;20448;-78
2021/12/16 10:06:50;;;;;;;29.07;17.03;;;5.10;75.40;;;;;;4979732;28;20030;-79
2021/12/16 10:09:17;;;;;;;30.80;17.23;;;5.10;75.30;;;;;;4978685;28;21711;-78
2021/12/16 10:11:45;;;;;;;26.37;16.70;;;5.10;75.30;;;;;;4959927;28;20030;-78
2021/12/16 10:19:23;;;;;;;29.20;15.87;;;5.10;75.40;;;;;;4981157;28;20125;-79
2021/12/16 10:21:49;;;;;;;26.57;15.97;;;5.00;75.20;;;;;;4958658;28;20445;-79
2021/12/16 10:24:28;;;;;;;26.87;16.90;;;5.00;75.50;;;;;;4969329;28;20027;-79
2021/12/16 10:27:20;;;;;;;25.33;15.73;;;5.10;75.60;;;;;;4959105;28;20079;-79
2021/12/16 10:29:51;;;;;;;30.23;16.97;;;5.10;75.60;;;;;;4959383;28;20486;-79
2021/12/16 10:32:46;;;;;;;27.97;18.00;;;5.20;75.60;;;;;;4981471;28;20437;-79
2021/12/16 10:35:15;;;;;;;31.90;19.20;;;5.20;75.60;;;;;;4957429;28;20133;-78
2021/12/16 10:37:50;;;;;;;32.97;19.33;;;5.20;75.50;;;;;;4975961;28;20149;-79
2021/12/16 10:40:34;;;;;;;26.57;18.00;;;5.20;75.50;;;;;;4990432;28;20038;-79
2021/12/16 10:43:07;;;;;;;30.73;17.57;;;5.20;75.80;;;;;;4975900;28;20029;-78
2021/12/16 10:45:50;;;;;;;31.60;19.33;;;5.20;75.50;;;;;;4983758;28;20030;-79
2021/12/16 10:48:16;;;;;;;30.77;17.50;;;5.30;75.60;;;;;;4980265;28;20034;-78
2021/12/16 10:50:54;;;;;;;29.70;16.67;;;5.30;75.60;;;;;;4963763;28;20546;-78
2021/12/16 10:53:48;;;;;;;30.10;18.10;;;5.30;75.60;;;;;;4982073;28;20105;-79
2021/12/16 10:56:15;;;;;;;29.47;18.03;;;5.30;75.70;;;;;;4979767;28;20043;-79
2021/12/16 10:58:51;;;;;;;31.57;18.93;;;5.40;75.80;;;;;;4958475;28;20113;-79
2021/12/16 11:01:37;;;;;;;32.23;18.73;;;5.40;75.80;;;;;;4976599;28;20042;-79
2021/12/16 11:04:08;;;;;;;33.77;18.33;;;5.50;75.70;;;;;;4979347;28;20027;-79
2021/12/16 11:06:38;;;;;;;32.87;19.43;;;5.50;75.60;;;;;;4979023;28;20019;-79
2021/12/16 11:09:28;;;;;;;33.93;19.60;;;5.50;75.60;;;;;;4984335;28;20022;-79
2021/12/16 11:12:17;;;;;;;34.27;19.23;;;5.60;75.70;;;;;;4986538;28;20078;-78
2021/12/16 11:14:56;;;;;;;33.83;19.43;;;5.60;75.70;;;;;;4981891;28;20066;-78
2021/12/16 11:17:24;;;;;;;30.97;19.47;;;5.60;75.80;;;;;;4985437;28;20034;-79
2021/12/16 11:20:14;;;;;;;30.50;19.30;;;5.60;75.80;;;;;;4980915;28;20031;-79
2021/12/16 11:22:40;;;;;;;29.07;17.93;;;5.60;75.70;;;;;;4967498;28;20038;-78
2021/12/16 11:25:15;;;;;;;32.80;18.83;;;5.60;75.80;;;;;;4990439;28;20054;-79
2021/12/16 11:27:42;;;;;;;33.93;18.23;;;5.70;76.00;;;;;;4968758;28;20029;-79
2021/12/16 11:30:23;;;;;;;28.67;18.70;;;5.70;75.90;;;;;;4968050;28;20451;-79
2021/12/16 11:32:51;;;;;;;37.43;20.90;;;5.80;75.70;;;;;;4968721;28;20437;-79
2021/12/16 11:35:35;;;;;;;38.43;22.07;;;5.80;75.70;;;;;;4985833;28;20035;-78
2021/12/16 11:38:13;;;;;;;31.57;19.03;;;5.80;75.80;;;;;;4964558;28;20060;-79
2021/12/16 11:40:54;;;;;;;31.57;19.10;;;5.80;75.60;;;;;;4981650;28;20030;-79
2021/12/16 11:43:31;;;;;;;28.73;19.03;;;5.80;75.70;;;;;;4987621;28;20381;-78
2021/12/16 11:45:57;;;;;;;30.20;18.77;;;5.80;75.70;;;;;;4972056;28;20118;-79
2021/12/16 11:48:30;;;;;;;32.10;18.57;;;5.80;75.70;;;;;;4964035;28;20122;-79
2021/12/16 11:51:08;;;;;;;26.38;15.93;;;5.90;75.70;;;;;;4972074;28;20022;-79
2021/12/16 11:53:50;;;;;;;23.13;15.47;;;6.00;75.70;;;;;;4987715;28;20424;-80
2021/12/16 11:56:18;;;;;;;24.27;16.00;;;6.00;75.50;;;;;;4981154;28;20375;-79
2021/12/16 11:58:46;;;;;;;26.97;16.00;;;6.00;75.40;;;;;;4962636;28;20035;-79
2021/12/16 12:01:22;;;;;;;28.43;16.53;;;6.10;75.40;;;;;;4991784;28;20033;-79
2021/12/16 12:03:48;;;;;;;28.43;17.73;;;6.10;75.40;;;;;;4964554;28;20045;-79
2021/12/16 12:06:24;;;;;;;30.03;19.37;;;6.10;75.20;;;;;;4985988;28;20059;-79
2021/12/16 12:08:52;;;;;;;29.30;18.00;;;6.20;75.10;;;;;;4985960;28;20022;-79
2021/12/16 12:11:31;;;;;;;32.77;19.40;;;6.20;75.10;;;;;;4963100;28;20121;-79
2021/12/16 12:14:04;;;;;;;29.80;17.57;;;6.20;74.90;;;;;;4989459;28;20026;-79
2021/12/16 12:16:34;;;;;;;29.63;18.27;;;6.20;75.00;;;;;;4967272;28;20081;-80
2021/12/16 12:19:18;;;;;;;29.07;19.83;;;6.20;74.80;;;;;;4985872;28;20019;-79
2021/12/16 12:21:50;;;;;;;32.70;19.23;;;6.20;74.80;;;;;;4982597;28;20072;-80
2021/12/16 12:24:19;;;;;;;29.57;20.00;;;6.20;74.70;;;;;;4987971;28;20022;-79
2021/12/16 12:26:57;;;;;;;31.90;20.33;;;6.20;74.70;;;;;;4960976;28;20792;-80
2021/12/16 12:29:27;;;;;;;33.47;19.97;;;6.20;74.80;;;;;;4963308;28;20026;-79
2021/12/16 12:32:05;;;;;;;32.70;19.53;;;6.30;74.70;;;;;;4965099;28;20034;-79
2021/12/16 12:34:32;;;;;;;31.67;19.77;;;6.20;74.60;;;;;;4960163;28;20030;-79
2021/12/16 12:37:02;;;;;;;35.57;20.50;;;6.20;74.80;;;;;;4965530;28;20072;-83
2021/12/16 12:39:38;;;;;;;28.30;18.20;;;6.30;74.80;;;;;;4993554;28;20118;-81
2021/12/16 12:42:06;;;;;;;28.87;19.13;;;6.20;74.40;;;;;;4979407;28;20104;-78
2021/12/16 12:44:32;;;;;;;28.97;18.13;;;6.10;74.70;;;;;;4985482;28;20026;-79
2021/12/16 12:47:01;;;;;;;27.73;19.07;;;6.00;74.80;;;;;;4963398;28;20124;-78
2021/12/16 12:49:29;;;;;;;57.30;29.43;;;6.00;74.80;;;;;;4983864;28;20062;-79
2021/12/16 12:52:10;;;;;;;43.50;24.50;;;6.00;74.90;;;;;;4980538;28;20038;-78
2021/12/16 12:54:42;;;;;;;39.17;22.27;;;6.00;74.70;;;;;;4978770;28;20047;-79
2021/12/16 12:57:29;;;;;;;51.60;26.85;;;6.00;74.30;;;;;;4964410;28;20080;-79
2021/12/16 12:59:57;;;;;;;61.10;29.13;;;5.90;74.40;;;;;;4979810;28;20030;-79
2021/12/16 13:02:28;;;;;;;40.20;23.20;;;5.90;74.70;;;;;;4962173;28;20042;-79
2021/12/16 13:04:58;;;;;;;41.77;22.97;;;5.90;74.60;;;;;;4964574;28;20023;-79
2021/12/16 13:07:43;;;;;;;38.83;22.17;;;6.00;74.70;;;;;;4983720;28;20105;-79
2021/12/16 13:10:37;;;;;;;42.23;23.47;;;6.00;74.50;;;;;;4979721;28;20073;-79
2021/12/16 13:28:04;;;;;;;30.17;19.23;;;6.00;74.20;;;;;;4980369;28;20039;-79
2021/12/16 13:30:38;;;;;;;24.70;17.47;;;5.90;74.30;;;;;;4976945;28;20019;-79
2021/12/16 13:33:18;;;;;;;28.77;18.73;;;5.90;74.30;;;;;;4967463;28;20065;-79
2021/12/16 13:35:49;;;;;;;30.00;18.60;;;5.90;74.10;;;;;;4984740;28;20031;-79
2021/12/16 13:38:20;;;;;;;24.80;17.67;;;5.90;74.20;;;;;;4970366;28;20062;-79
2021/12/16 13:40:48;;;;;;;30.93;19.33;;;6.00;74.10;;;;;;4982288;28;20053;-79
2021/12/16 13:43:25;;;;;;;27.30;19.17;;;6.00;74.00;;;;;;4960446;28;20062;-79
2021/12/16 13:46:41;;;;;;;29.93;17.27;;;5.90;73.80;;;;;;4977469;28;20364;-79
2021/12/16 14:03:42;;;;;;;28.33;18.30;;;5.90;73.90;;;;;;4983721;28;20065;-79
2021/12/16 14:08:47;;;;;;;31.60;18.33;;;6.00;73.80;;;;;;4979668;28;20486;-79
2021/12/16 14:14:22;;;;;;;30.70;20.17;;;6.00;74.10;;;;;;4978257;28;20070;-79
2021/12/16 14:31:09;;;;;;;32.27;21.40;;;6.00;73.80;;;;;;4977613;28;20162;-79
2021/12/16 14:43:53;;;;;;;30.93;20.47;;;6.00;73.70;;;;;;4980164;28;20126;-79
2021/12/16 14:46:27;;;;;;;27.67;18.40;;;6.10;74.40;;;;;;4958713;28;20027;-77
2021/12/16 14:48:54;;;;;;;29.10;18.90;;;6.10;73.70;;;;;;4960188;28;20445;-79
2021/12/16 14:51:21;;;;;;;27.67;18.43;;;6.10;73.70;;;;;;4979949;28;20468;-79
2021/12/16 14:53:50;;;;;;;31.57;18.87;;;6.10;73.70;;;;;;4979060;28;20034;-79
2021/12/16 14:56:24;;;;;;;26.30;19.37;;;6.10;73.60;;;;;;4966222;28;20074;-79
2021/12/16 14:58:54;;;;;;;28.63;19.67;;;6.10;73.80;;;;;;4974336;28;20070;-79
2021/12/16 15:01:24;;;;;;;28.73;19.80;;;6.00;73.80;;;;;;4975820;28;20467;-79
2021/12/16 15:03:51;;;;;;;30.10;19.97;;;6.00;73.80;;;;;;4968920;28;20430;-79
2021/12/16 15:06:25;;;;;;;30.87;18.63;;;6.10;73.90;;;;;;4963726;28;20461;-79
2021/12/16 15:09:11;;;;;;;35.33;21.30;;;6.10;73.80;;;;;;4961426;28;21758;-79
2021/12/16 15:11:52;;;;;;;33.27;20.97;;;6.10;73.70;;;;;;4976985;28;20034;-79
2021/12/16 15:17:11;;;;;;;32.17;20.30;;;6.00;73.90;;;;;;4988046;28;20474;-79
2021/12/16 15:42:50;;;;;;;29.37;20.40;;;6.10;74.10;;;;;;4978432;28;20031;-79
2021/12/16 15:45:27;;;;;;;33.47;20.33;;;6.20;74.20;;;;;;4972519;28;20405;-79
2021/12/16 15:48:00;;;;;;;35.10;22.17;;;6.20;74.10;;;;;;4981147;28;20462;-79
2021/12/16 15:50:33;;;;;;;;;;;6.20;74.90;;;;;;4971029;28;20073;-79
2021/12/16 15:53:02;;;;;;;32.80;20.43;;;6.20;74.00;;;;;;4974903;28;19918;-79
2021/12/16 15:55:43;;;;;;;28.07;19.90;;;6.20;74.00;;;;;;4966949;28;20030;-79
2021/12/16 15:58:17;;;;;;;33.70;22.27;;;6.20;73.60;;;;;;4988584;28;20050;-79
2021/12/16 16:00:49;;;;;;;37.97;23.40;;;6.20;73.70;;;;;;4981364;28;20026;-79
2021/12/16 16:03:16;;;;;;;30.67;21.27;;;6.20;73.90;;;;;;4984018;28;20077;-79
2021/12/16 16:05:49;;;;;;;28.23;19.60;;;6.20;73.80;;;;;;4962622;28;20554;-79
2021/12/16 16:08:18;;;;;;;27.40;18.10;;;6.10;74.00;;;;;;4981404;28;20441;-79
2021/12/16 16:10:47;;;;;;;19.57;14.03;;;6.10;74.00;;;;;;4981205;28;20019;-79
2021/12/16 16:13:15;;;;;;;51.50;28.20;;;6.10;74.30;;;;;;4991060;28;20026;-79
2021/12/16 16:15:43;;;;;;;50.00;28.77;;;6.20;74.30;;;;;;4979454;28;20030;-79
2021/12/16 16:18:26;;;;;;;34.07;20.30;;;6.20;74.00;;;;;;4967338;28;20532;-79
2021/12/16 16:20:52;;;;;;;;;;;6.20;73.90;;;;;;4977282;28;20528;-79
2021/12/16 16:23:18;;;;;;;39.50;24.80;;;6.10;73.80;;;;;;4984822;28;19917;-79
2021/12/16 16:25:45;;;;;;;32.67;21.50;;;6.10;73.80;;;;;;4964261;28;20100;-79
2021/12/16 16:28:14;;;;;;;29.77;17.93;;;6.10;73.90;;;;;;4981532;28;20038;-79
2021/12/16 16:30:41;;;;;;;27.73;18.93;;;6.00;73.50;;;;;;4986820;28;20438;-79
2021/12/16 16:33:13;;;;;;;27.37;16.90;;;5.90;73.50;;;;;;4977594;28;20110;-79
2021/12/16 16:35:51;;;;;;;25.42;17.67;;;5.90;73.70;;;;;;4964566;28;20113;-79
2021/12/16 16:38:24;;;;;;;29.30;19.23;;;5.90;73.60;;;;;;4976019;28;20033;-79
2021/12/16 16:40:53;;;;;;;28.93;18.63;;;5.90;73.60;;;;;;4975874;28;20034;-79
2021/12/16 16:43:38;;;;;;;26.67;17.90;;;5.90;73.40;;;;;;4967337;28;20125;-79
2021/12/16 16:46:06;;;;;;;27.03;18.07;;;5.90;73.50;;;;;;4982294;28;20049;-79
2021/12/16 16:48:47;;;;;;;31.47;19.63;;;5.90;73.60;;;;;;4978548;28;20019;-79
2021/12/16 16:51:18;;;;;;;29.90;18.80;;;5.90;73.60;;;;;;4982636;28;20025;-79
2021/12/16 16:53:55;;;;;;;31.33;19.23;;;5.90;73.40;;;;;;4979111;28;20394;-79
2021/12/16 16:56:44;;;;;;;30.60;19.57;;;5.80;73.60;;;;;;4966327;28;20469;-79